Airfield :
LOGIN :

Register | Disclaimer

   EN    FR    IT 

 










Legend :    VFR   Marginal VFR   IFR   Intensive IFR   Very Intensive IFR
Visi :
Ceiling :
>= 8 km
>= 3000ft
5 to 8 km
1000 to 3000 ft
1500m to 5 km
500 to 1000 ft
800 to 1500m
200 to 500 ft
< 800m
< 200 ft
Symbols :   Thunderstorms  Fog  Heavy snow  Heavy precipitations  Wind > 20 kt
SIGMETs :     Misc.  Thunderstorms  Icing  Turbulence  Mountain Waves  Volcanic Ashes






- Airport Elevation : 2026 ft
- IATA code : TOJ


LETO - Madrid Torrejon

CURRENT METAR :
  • 290830Z 23003KT CAVOK 22/08 Q1010 NOSIG

EXPIRED METARs :
  • 290800Z 08001KT CAVOK 22/08 Q1010 NOSIG
  • 290730Z 11001KT CAVOK 21/08 Q1010 NOSIG
  • 290700Z VRB02KT CAVOK 19/08 Q1010 NOSIG
  • 290630Z 00000KT CAVOK 17/07 Q1010 NOSIG
  • 290600Z VRB01KT CAVOK 15/07 Q1010 NOSIG
  • 290530Z 01004KT CAVOK 13/06 Q1010 NOSIG

TAF AMD TAF LETO
Valid from the 29 at 08:00 until the 30 at 06:00 UTC


290815Z 2908/3006 VRB05KT 9999 FEW040 TX32/2915Z TN13/3005Z
TEMPO 2910/2919 FEW040TCU
PROB40
TEMPO 2910/2916 23010G20KT FEW040CB
PROB30
TEMPO 2916/2919 29010KT
BECMG 3003/3005 23010KT



MET'MAP, your aeronautical weather chart ! - Copyright ORBIFLY December 2007 - Disclaimer

ORBIFLY MET'MAP TEAM :

Programming & Development : Alexandra Zaïnal
Original concept : Baudouin d'Aumeries
Technical & hardware support : Manuel Goepfert
Assistance : Marc-Olivier Méhu

Contact : metmap@orbifly.com




SOURCES & CREDITS :

   NOAA